Time;durP1;ratioP1;P1;durP2;ratioP2;P2;SDS_P1;SDS_P2;PMS_P1;PMS_P2;Temp;Humidity;BMP_temperature;BMP_pressure;BME280_temperature;BME280_humidity;BME280_pressure;Samples;Min_cycle;Max_cycle;Signal;HPM_P1;HPM_P2
2023/09/21 00:00:42;;;;;;;;;;;;;;;;;;;;;
2023/09/21 00:08:12;;;;;;;;;;;;;;;;;;;;;
2023/09/21 00:11:18;;;;;;;4.90;3.40;;;;;;;13.79;79.23;99716.52;133416;1305;22493;-81
2023/09/21 00:14:24;;;;;;;5.10;2.90;;;;;;;13.79;79.19;99714.39;133288;1304;22467;-82
2023/09/21 00:18:08;;;;;;;5.40;3.70;;;;;;;13.76;78.82;99711.55;133419;1305;22466;-83
2023/09/21 00:21:50;;;;;;;9.10;3.50;;;;;;;13.67;79.62;99707.77;133409;1310;22980;-81
2023/09/21 00:25:22;;;;;;;6.10;3.70;;;;;;;13.55;80.07;99704.66;133372;1308;22239;-80
2023/09/21 00:28:32;;;;;;;5.70;3.40;;;;;;;13.52;79.94;99701.48;133403;1308;22374;-81
2023/09/21 00:31:38;;;;;;;4.70;3.10;;;;;;;13.51;79.99;99699.05;133217;1305;22655;-80
2023/09/21 00:34:56;;;;;;;5.60;4.40;;;;;;;13.48;80.06;99690.38;133375;1310;22387;-79
2023/09/21 00:38:10;;;;;;;5.70;3.90;;;;;;;13.43;80.67;99691.39;133228;1308;22209;-85
2023/09/21 00:41:31;;;;;;;5.10;3.60;;;;;;;13.43;80.88;99687.37;133227;1310;23222;-81
2023/09/21 00:44:38;;;;;;;5.30;3.10;;;;;;;13.44;80.80;99685.98;133431;1304;22249;-84
2023/09/21 00:48:08;;;;;;;6.50;3.80;;;;;;;13.40;80.26;99683.89;133457;1305;22447;-83
2023/09/21 00:51:41;;;;;;;4.10;3.00;;;;;;;13.31;80.90;99685.73;133316;1305;22388;-81
2023/09/21 00:54:45;;;;;;;5.40;3.30;;;;;;;13.29;81.13;99683.11;133412;1304;22459;-80
2023/09/21 00:58:10;;;;;;;6.90;3.20;;;;;;;13.31;81.21;99677.21;133427;1303;22218;-81
2023/09/21 01:01:29;;;;;;;4.50;3.50;;;;;;;13.31;80.81;99682.55;133377;1305;23123;-80
2023/09/21 01:05:39;;;;;;;5.60;3.70;;;;;;;13.27;80.78;99683.44;133182;1304;23133;-81
2023/09/21 01:08:29;;;;;;;6.40;3.70;;;;;;;13.19;81.23;99680.21;133385;1306;22891;-81
2023/09/21 01:11:59;;;;;;;5.60;2.80;;;;;;;13.19;81.45;99682.09;133301;1304;22920;-81
2023/09/21 01:15:33;;;;;;;3.80;2.80;;;;;;;13.19;80.48;99679.96;133412;1310;22800;-80
2023/09/21 01:18:40;;;;;;;5.50;3.50;;;;;;;13.10;80.77;99680.07;133368;1305;23159;-80
2023/09/21 01:21:59;;;;;;;5.10;3.80;;;;;;;13.04;81.63;99674.77;133231;1304;22375;-79
2023/09/21 01:25:15;;;;;;;5.10;3.80;;;;;;;13.02;81.75;99670.17;133441;1304;22293;-83
2023/09/21 01:29:05;;;;;;;7.20;4.00;;;;;;;13.02;81.94;99671.40;133442;1305;23195;-81
2023/09/21 01:32:05;;;;;;;5.40;3.50;;;;;;;13.06;82.08;99668.11;133285;1305;22476;-81
2023/09/21 01:35:18;;;;;;;5.90;3.60;;;;;;;13.06;81.92;99666.88;133190;1305;22496;-80
2023/09/21 01:38:30;;;;;;;5.50;3.70;;;;;;;13.04;82.15;99662.73;133426;1307;22374;-83
2023/09/21 01:41:57;;;;;;;;;;;;;;;;;;;;;
2023/09/21 01:45:07;;;;;;;6.10;3.80;;;;;;;13.04;82.41;99648.48;133293;1304;22501;-82
2023/09/21 01:48:19;;;;;;;5.80;3.60;;;;;;;13.00;83.06;99643.45;133224;1304;22363;-82
2023/09/21 01:51:54;;;;;;;;;;;;;;;;;;;;;
2023/09/21 01:55:29;;;;;;;;;;;;;;;;;;;;;
2023/09/21 01:58:54;;;;;;;7.10;3.80;;;;;;;12.97;83.27;99640.84;133305;1304;22435;-82
2023/09/21 02:02:13;;;;;;;10.20;4.00;;;;;;;12.96;83.64;99635.55;133191;1304;22573;-80
2023/09/21 02:06:02;;;;;;;8.10;4.00;;;;;;;12.96;83.94;99637.06;133294;1307;23082;-82
2023/09/21 02:09:37;;;;;;;;;;;;;;;;;;;;;
2023/09/21 02:13:36;;;;;;;5.90;4.20;;;;;;;12.87;83.96;99622.86;133119;1304;22271;-84
2023/09/21 02:22:02;;;;;;;;;;;;;;;;;;;;;
2023/09/21 02:25:18;;;;;;;8.40;4.50;;;;;;;12.75;84.58;99612.19;133122;1307;22463;-82
2023/09/21 02:32:36;;;;;;;8.10;5.10;;;;;;;12.78;84.66;99606.23;133108;1304;22351;-83
2023/09/21 02:35:41;;;;;;;8.80;5.30;;;;;;;12.81;84.93;99602.71;133274;1304;22467;-81
2023/09/21 02:39:29;;;;;;;7.20;5.00;;;;;;;12.82;85.08;99598.34;133194;1304;22495;-82
2023/09/21 02:43:26;;;;;;;9.00;5.30;;;;;;;12.78;85.25;99595.57;133408;1303;22372;-80
2023/09/21 02:47:05;;;;;;;;;;;;;;;;;;;;;
2023/09/21 02:51:09;;;;;;;;;;;;;;;;;;;;;
2023/09/21 02:54:46;;;;;;;11.50;5.40;;;;;;;12.72;85.83;99593.88;133410;1307;22365;-85
2023/09/21 02:58:06;;;;;;;9.50;5.30;;;;;;;12.73;86.01;99585.81;133318;1304;22405;-81
2023/09/21 03:02:16;;;;;;;11.60;6.00;;;;;;;12.74;86.04;99582.67;133374;1304;23240;-85
2023/09/21 03:14:01;;;;;;;9.40;5.50;;;;;;;12.69;86.21;99577.06;133192;1304;23578;-82
2023/09/21 03:21:50;;;;;;;;;;;;;;;;;;;;;
2023/09/21 03:25:25;;;;;;;7.30;5.30;;;;;;;12.61;85.58;99569.43;133177;1302;22396;-81
2023/09/21 03:29:49;;;;;;;;;;;;;;;;;;;;;
2023/09/21 03:33:53;;;;;;;;;;;;;;;;;;;;;
2023/09/21 03:37:00;;;;;;;8.70;5.10;;;;;;;12.61;85.60;99563.16;133301;1302;23785;-81
2023/09/21 03:40:42;;;;;;;;;;;;;;;;;;;;;
2023/09/21 03:45:15;;;;;;;9.90;4.90;;;;;;;12.62;85.77;99563.39;133252;1304;22283;-81
2023/09/21 03:48:35;;;;;;;9.10;5.10;;;;;;;12.62;85.99;99558.63;133417;1305;22318;-87
2023/09/21 03:56:57;;;;;;;;;;;;;;;;;;;;;
2023/09/21 04:04:17;;;;;;;9.20;4.70;;;;;;;12.65;85.95;99549.02;132717;1310;22420;-83
2023/09/21 04:16:31;;;;;;;8.30;4.10;;;;;;;12.49;85.84;99537.58;133254;1307;22700;-81
2023/09/21 04:20:45;;;;;;;;;;;;;;;;;;;;;
2023/09/21 04:24:00;;;;;;;8.80;5.20;;;;;;;12.49;86.66;99537.48;133039;1307;22234;-82
2023/09/21 04:27:09;;;;;;;8.80;5.30;;;;;;;12.51;86.39;99534.27;133014;1306;23005;-79
2023/09/21 04:30:15;;;;;;;9.60;5.50;;;;;;;12.52;86.36;99530.99;133141;1307;22310;-80
2023/09/21 04:33:29;;;;;;;7.70;5.00;;;;;;;12.53;86.76;99526.95;132787;1308;23603;-78
2023/09/21 04:36:52;;;;;;;9.50;5.20;;;;;;;12.55;86.93;99524.71;133074;1305;23043;-76
2023/09/21 04:40:16;;;;;;;;;;;;;;;;;;;;;
2023/09/21 04:43:34;;;;;;;11.80;5.30;;;;;;;12.58;87.19;99522.44;133070;1307;22888;-79
2023/09/21 04:46:50;;;;;;;;;;;;;;;;;;;;;
2023/09/21 04:49:57;;;;;;;13.40;5.10;;;;;;;12.68;87.42;99527.02;133263;1307;22260;-79
2023/09/21 04:53:31;;;;;;;9.20;5.40;;;;;;;12.73;87.51;99523.73;133457;1304;23548;-80
2023/09/21 04:56:37;;;;;;;9.30;4.90;;;;;;;12.81;88.08;99516.48;133271;1304;23231;-77
2023/09/21 05:00:32;;;;;;;;;;;;;;;;;;;;;
2023/09/21 05:03:48;;;;;;;9.80;6.00;;;;;;;13.03;87.90;99519.36;133519;1303;22366;-81
2023/09/21 05:07:39;;;;;;;6.80;5.10;;;;;;;13.15;88.22;99515.69;133444;1303;22297;-85
2023/09/21 05:10:51;;;;;;;11.40;5.00;;;;;;;13.37;88.83;99517.73;133460;1304;23166;-83
2023/09/21 05:14:33;;;;;;;9.00;5.00;;;;;;;13.75;89.23;99516.25;133206;1306;22269;-84
2023/09/21 05:17:54;;;;;;;12.40;6.00;;;;;;;14.33;89.10;99514.73;133371;1304;22266;-79
2023/09/21 05:21:06;;;;;;;10.50;5.00;;;;;;;14.91;88.69;99517.88;133414;1309;23210;-79
2023/09/21 05:24:55;;;;;;;6.80;4.30;;;;;;;15.52;88.23;99507.70;133421;1304;22669;-80
2023/09/21 05:28:11;;;;;;;7.80;4.80;;;;;;;16.27;87.29;99501.52;132942;1304;23022;-79
2023/09/21 05:31:42;;;;;;;14.40;7.90;;;;;;;16.79;86.57;99503.56;133414;1304;22490;-80
2023/09/21 05:34:44;;;;;;;7.00;4.80;;;;;;;17.40;85.72;99504.00;133479;1304;22404;-78
2023/09/21 05:38:07;;;;;;;7.10;4.00;;;;;;;17.93;84.22;99498.38;133372;1309;22408;-79
2023/09/21 05:41:13;;;;;;;8.00;3.90;;;;;;;18.19;82.24;99496.13;133299;1304;22407;-78
2023/09/21 05:45:09;;;;;;;;;;;;;;;;;;;;;
2023/09/21 05:48:40;;;;;;;;;;;;;;;;;;;;;
2023/09/21 05:52:12;;;;;;;6.10;3.70;;;;;;;18.85;80.40;99494.54;133432;1309;23176;-81
2023/09/21 05:58:39;;;;;;;6.50;3.70;;;;;;;19.60;78.17;99490.32;133430;1304;22916;-75
2023/09/21 06:02:16;;;;;;;;;;;;;;;;;;;;;
2023/09/21 06:09:41;;;;;;;7.80;4.00;;;;;;;20.59;75.72;99485.16;133149;1304;22330;-75
2023/09/21 06:13:15;;;;;;;;;;;;;;;;;;;;;
2023/09/21 06:17:28;;;;;;;;;;;;;;;;;;;;;
2023/09/21 06:21:01;;;;;;;6.80;3.40;;;;;;;21.69;73.09;99492.20;133463;1304;23138;-75
2023/09/21 06:24:19;;;;;;;6.80;3.40;;;;;;;22.16;71.80;99491.29;133440;1302;22497;-73
2023/09/21 06:27:51;;;;;;;10.70;3.90;;;;;;;22.31;69.60;99491.05;133455;1295;22365;-73
2023/09/21 06:31:43;;;;;;;;;;;;;;;;;;;;;
2023/09/21 06:35:26;;;;;;;;;;;;;;;;;;;;;
2023/09/21 06:38:50;;;;;;;7.60;3.10;;;;;;;22.79;68.24;99478.47;133432;1304;23279;-73
2023/09/21 06:41:54;;;;;;;6.20;3.20;;;;;;;22.87;66.77;99473.27;133228;1304;22404;-73
2023/09/21 06:49:54;;;;;;;5.30;3.20;;;;;;;23.18;65.55;99473.16;133205;1303;22379;-74
2023/09/21 06:53:34;;;;;;;6.50;3.40;;;;;;;23.34;65.01;99473.91;133203;1303;311342;-74
2023/09/21 06:56:38;;;;;;;5.10;3.20;;;;;;;23.67;63.74;99473.61;133413;1305;22219;-76
2023/09/21 07:00:31;;;;;;;5.00;2.90;;;;;;;23.68;63.08;99469.66;133270;1310;22427;-76
2023/09/21 07:04:07;;;;;;;7.80;3.50;;;;;;;23.74;62.58;99470.61;133212;1303;22429;-74
2023/09/21 07:08:34;;;;;;;4.50;3.00;;;;;;;23.87;61.03;99465.36;133357;1305;22443;-74
2023/09/21 07:12:07;;;;;;;5.50;3.00;;;;;;;23.67;59.37;99469.77;133144;1302;23028;-75
2023/09/21 07:16:05;;;;;;;;;;;;;;;;;;;;;
2023/09/21 07:19:40;;;;;;;5.20;3.10;;;;;;;23.51;58.80;99463.77;133184;1309;22604;-74
2023/09/21 07:22:46;;;;;;;6.00;3.30;;;;;;;23.53;59.28;99461.17;133331;1309;22430;-74
2023/09/21 07:26:58;;;;;;;;;;;;;;;;;;;;;
2023/09/21 07:30:46;;;;;;;7.90;3.00;;;;;;;23.64;57.83;99464.39;133447;1304;23149;-74
2023/09/21 07:33:57;;;;;;;;;;;;;;;;;;;;;
2023/09/21 07:36:58;;;;;;;6.30;3.00;;;;;;;23.59;57.50;99460.27;133448;1309;22383;-74
2023/09/21 07:40:21;;;;;;;9.30;3.60;;;;;;;23.60;57.18;99456.64;133436;1303;22738;-75
2023/09/21 07:44:15;;;;;;;6.50;3.20;;;;;;;23.50;56.89;99458.80;133464;1304;22352;-74
2023/09/21 07:47:29;;;;;;;9.30;3.60;;;;;;;23.62;57.24;99457.30;133241;1304;22391;-75
2023/09/21 07:51:01;;;;;;;;;;;;;;;;;;;;;
2023/09/21 07:54:13;;;;;;;;;;;;;;;;;;;;;
2023/09/21 07:57:50;;;;;;;;;;;;;;;;;;;;;
2023/09/21 08:01:46;;;;;;;6.20;3.40;;;;;;;24.26;55.89;99440.85;133318;1304;22453;-75
2023/09/21 08:04:58;;;;;;;9.30;3.60;;;;;;;24.31;55.21;99444.64;133431;1304;22261;-77
2023/09/21 08:08:31;;;;;;;15.10;4.10;;;;;;;24.29;55.08;99443.71;133470;1303;23250;-75
2023/09/21 08:11:55;;;;;;;;;;;;;;;24.28;54.82;99449.41;133460;1292;22427;-74
2023/09/21 08:15:43;;;;;;;5.90;3.00;;;;;;;24.32;55.04;99445.06;133383;1304;22345;-75
2023/09/21 08:18:58;;;;;;;9.50;3.80;;;;;;;24.51;54.66;99444.46;133475;1304;22231;-75
2023/09/21 08:22:27;;;;;;;7.90;2.90;;;;;;;24.47;53.63;99440.52;133461;1309;22468;-77
2023/09/21 08:25:38;;;;;;;8.10;3.60;;;;;;;24.40;54.05;99444.83;133435;1303;22460;-74
2023/09/21 08:29:06;;;;;;;12.20;3.00;;;;;;;24.39;53.48;99436.50;133410;1303;22423;-76
2023/09/21 08:32:33;;;;;;;;;;;;;;;;;;;;;
2023/09/21 08:36:10;;;;;;;;;;;;;;;;;;;;;
2023/09/21 08:39:25;;;;;;;;;;;;;;;;;;;;;
2023/09/21 08:43:01;;;;;;;7.70;3.60;;;;;;;24.60;52.66;99426.70;133452;1304;22461;-75
2023/09/21 08:46:54;;;;;;;;;;;;;;;;;;;;;
2023/09/21 08:50:09;;;;;;;8.70;3.10;;;;;;;24.85;52.58;99420.27;133466;1309;22412;-74
2023/09/21 08:53:34;;;;;;;;;;;;;;;;;;;;;
2023/09/21 08:57:19;;;;;;;;;;;;;;;;;;;;;
2023/09/21 09:00:51;;;;;;;;;;;;;;;;;;;;;
2023/09/21 09:04:01;;;;;;;6.70;3.10;;;;;;;25.48;51.38;99413.54;133472;1309;22429;-76
2023/09/21 09:07:22;;;;;;;7.60;3.20;;;;;;;25.64;50.77;99416.36;133416;1307;23219;-73
2023/09/21 09:11:02;;;;;;;8.80;3.30;;;;;;;25.63;50.11;99415.94;133421;1304;24877;-75
2023/09/21 09:14:28;;;;;;;5.90;3.20;;;;;;;25.62;50.26;99408.39;133289;1309;23263;-75
2023/09/21 09:18:24;;;;;;;6.50;3.20;;;;;;;25.72;50.17;99405.81;133393;1304;23797;-76
2023/09/21 09:21:33;;;;;;;5.00;2.70;;;;;;;25.70;49.64;99395.84;133293;1308;22471;-77
2023/09/21 09:24:37;;;;;;;8.50;3.10;;;;;;;25.66;49.51;99398.25;133410;1309;22283;-79
2023/09/21 09:28:20;;;;;;;9.10;3.10;;;;;;;25.71;49.93;99400.01;133439;1304;22425;-78
2023/09/21 09:32:14;;;;;;;6.10;3.10;;;;;;;25.81;49.64;99391.46;133407;1304;22339;-75
2023/09/21 09:35:41;;;;;;;;;;;;;;;;;;;;;
2023/09/21 09:39:17;;;;;;;4.20;2.90;;;;;;;26.03;50.38;99392.38;133378;1307;23245;-75
2023/09/21 09:42:35;;;;;;;5.60;2.90;;;;;;;26.19;49.44;99383.52;133325;1306;22298;-75
2023/09/21 09:49:44;;;;;;;;;;;;;;;;;;;;;
2023/09/21 09:53:17;;;;;;;6.30;3.40;;;;;;;26.73;48.94;99370.52;133157;1304;23038;-75
2023/09/21 09:56:45;;;;;;;;;;;;;;;;;;;;;
2023/09/21 10:00:22;;;;;;;7.10;3.00;;;;;;;26.50;47.96;99365.72;133390;1310;22517;-75
2023/09/21 10:03:57;;;;;;;5.80;3.40;;;;;;;26.63;48.56;99371.39;133180;1310;22470;-75
2023/09/21 10:07:16;;;;;;;6.40;3.40;;;;;;;26.76;47.40;99366.23;133416;1309;22541;-75
2023/09/21 10:10:43;;;;;;;;;;;;;;;;;;;;;
2023/09/21 10:14:42;;;;;;;7.90;3.20;;;;;;;26.81;47.85;99358.50;133415;1302;23288;-75
2023/09/21 10:18:06;;;;;;;;;;;;;;;;;;;;;
2023/09/21 10:21:38;;;;;;;;;;;;;;;;;;;;;
2023/09/21 10:25:06;;;;;;;8.80;3.20;;;;;;;26.91;47.58;99350.89;133476;1304;22435;-75
2023/09/21 10:28:37;;;;;;;5.20;3.00;;;;;;;27.05;46.59;99348.14;133391;1304;22456;-75
2023/09/21 10:32:28;;;;;;;5.10;3.10;;;;;;;26.91;46.26;99348.51;133311;1305;22985;-74
2023/09/21 10:36:15;;;;;;;;;;;;;;;;;;;;;
2023/09/21 10:44:20;;;;;;;11.20;3.30;;;;;;;26.69;46.09;99336.50;132973;1310;22248;-75
2023/09/21 10:47:47;;;;;;;5.90;3.20;;;;;;;26.66;46.08;99329.20;133323;1304;22276;-76
2023/09/21 10:50:55;;;;;;;6.80;3.30;;;;;;;26.71;46.07;99325.87;133161;1307;22401;-75
2023/09/21 10:54:41;;;;;;;;;;;;;;;;;;;;;
2023/09/21 10:58:00;;;;;;;7.20;3.40;;;;;;;26.96;46.07;99318.44;133319;1304;23129;-75
2023/09/21 11:01:25;;;;;;;8.20;3.30;;;;;;;27.03;45.79;99314.64;133169;1307;22440;-75
2023/09/21 11:04:46;;;;;;;7.40;3.00;;;;;;;26.95;45.91;99308.33;133318;1300;22724;-75
2023/09/21 11:12:05;;;;;;;;;;;;;;;;;;;;;
2023/09/21 11:15:16;;;;;;;5.40;3.10;;;;;;;27.00;45.77;99285.55;133311;1304;22232;-74
2023/09/21 11:18:48;;;;;;;17.90;3.40;;;;;;;27.05;45.59;99285.20;133295;1304;22375;-78
2023/09/21 11:22:44;;;;;;;4.20;3.00;;;;;;;27.11;45.51;99279.40;133398;1304;22197;-74
2023/09/21 11:26:12;;;;;;;;;;;;;;;;;;;;;
2023/09/21 11:29:28;;;;;;;7.20;3.20;;;;;;;27.25;44.85;99277.02;133369;1310;23202;-77
2023/09/21 11:33:19;;;;;;;9.80;3.10;;;;;;;27.27;44.93;99275.52;133381;1304;22379;-75
2023/09/21 11:36:57;;;;;;;5.70;2.80;;;;;;;27.17;44.38;99272.88;133342;1304;22215;-75
2023/09/21 11:40:23;;;;;;;5.30;2.80;;;;;;;27.03;44.93;99266.83;133213;1310;22936;-78
2023/09/21 11:43:53;;;;;;;10.80;3.10;;;;;;;26.95;44.80;99260.86;133350;1303;22440;-75
2023/09/21 11:46:57;;;;;;;7.10;3.00;;;;;;;26.92;45.35;99257.91;133414;1304;22228;-73
2023/09/21 11:50:05;;;;;;;6.10;2.70;;;;;;;27.00;45.22;99255.50;133415;1304;22184;-76
2023/09/21 11:53:14;;;;;;;7.10;3.00;;;;;;;27.04;44.88;99245.92;133418;1307;22502;-78
2023/09/21 11:56:30;;;;;;;4.50;2.80;;;;;;;27.01;45.27;99240.30;133356;1304;23307;-77
2023/09/21 12:03:23;;;;;;;8.60;3.70;;;;;;;27.11;45.47;99230.05;132998;1304;22480;-74
2023/09/21 12:06:32;;;;;;;7.60;3.30;;;;;;;27.23;44.98;99222.38;133379;1304;25797;-74
2023/09/21 12:09:57;;;;;;;4.80;2.90;;;;;;;27.13;44.47;99219.36;133373;1304;22399;-73
2023/09/21 12:13:19;;;;;;;11.20;3.30;;;;;;;27.01;44.27;99214.05;133305;1304;22417;-75
2023/09/21 12:17:04;;;;;;;5.80;3.20;;;;;;;27.00;43.81;99209.55;133213;1305;23254;-75
2023/09/21 12:20:17;;;;;;;8.80;3.20;;;;;;;27.01;44.11;99203.38;133433;1303;22441;-74
2023/09/21 12:23:34;;;;;;;9.60;3.10;;;;;;;27.17;44.31;99201.39;133454;1309;23379;-74
2023/09/21 12:26:43;;;;;;;12.10;3.40;;;;;;;27.28;43.76;99197.52;133423;1305;23204;-75
2023/09/21 12:29:55;;;;;;;8.70;3.30;;;;;;;27.25;43.86;99195.60;133257;1307;23170;-75
2023/09/21 12:32:56;;;;;;;8.50;2.90;;;;;;;27.37;44.02;99190.55;133444;1304;22416;-74
2023/09/21 12:36:23;;;;;;;7.80;2.70;;;;;;;27.50;43.55;99182.84;133432;1309;22499;-75
2023/09/21 12:39:33;;;;;;;7.20;2.90;;;;;;;27.48;43.51;99176.79;133435;1304;22315;-75
2023/09/21 12:42:58;;;;;;;10.20;2.60;;;;;;;27.45;42.78;99182.99;133435;1309;22440;-75
2023/09/21 12:46:39;;;;;;;7.10;3.00;;;;;;;27.41;43.03;99173.59;133403;1305;22417;-77
2023/09/21 12:49:46;;;;;;;9.80;3.10;;;;;;;27.31;42.37;99183.68;133399;1304;23106;-76
2023/09/21 12:53:24;;;;;;;8.50;2.90;;;;;;;27.21;42.37;99177.91;133460;1309;22384;-78
2023/09/21 12:56:28;;;;;;;8.50;2.40;;;;;;;27.16;42.52;99175.65;133404;1307;23286;-76
2023/09/21 12:59:33;;;;;;;4.50;2.70;;;;;;;27.10;42.70;99170.36;133436;1309;22521;-77
2023/09/21 13:02:51;;;;;;;7.30;2.80;;;;;;;27.11;42.59;99175.13;133408;1304;23472;-75
2023/09/21 13:06:16;;;;;;;10.60;2.70;;;;;;;27.11;42.68;99170.45;133429;1307;22563;-77
2023/09/21 13:09:39;;;;;;;7.10;2.70;;;;;;;27.12;42.63;99168.19;133405;1304;22198;-76
2023/09/21 13:13:04;;;;;;;;;;;;;;;;;;;;;
2023/09/21 13:16:20;;;;;;;;;;;;;;;;;;;;;
2023/09/21 13:19:22;;;;;;;4.50;2.40;;;;;;;27.20;42.92;99163.01;133397;1309;22386;-77
2023/09/21 13:22:23;;;;;;;8.90;2.50;;;;;;;27.17;43.06;99155.98;133416;1304;23100;-78
2023/09/21 13:25:25;;;;;;;11.70;2.80;;;;;;;27.13;42.93;99155.48;133204;1310;23034;-77
2023/09/21 13:28:48;;;;;;;7.60;2.60;;;;;;;27.03;42.77;99151.95;133379;1297;22446;-77
2023/09/21 13:32:14;;;;;;;5.20;2.30;;;;;;;26.82;42.85;99159.07;133388;1304;22460;-76
2023/09/21 13:35:18;;;;;;;5.00;2.70;;;;;;;26.52;43.43;99156.75;133410;1307;22779;-77
2023/09/21 13:38:32;;;;;;;2.70;1.90;;;;;;;26.37;43.91;99157.00;133417;1306;22450;-76
2023/09/21 13:41:37;;;;;;;5.30;2.50;;;;;;;26.28;44.03;99154.48;133089;1307;22385;-76
2023/09/21 13:45:28;;;;;;;;;;;;;;;;;;;;;
2023/09/21 13:49:24;;;;;;;7.40;2.40;;;;;;;26.06;44.48;99146.96;133120;1307;22367;-76
2023/09/21 13:52:39;;;;;;;5.10;2.20;;;;;;;26.00;44.54;99150.02;133270;1304;23637;-77
2023/09/21 13:56:24;;;;;;;;;;;;;;;;;;;;;
2023/09/21 13:59:51;;;;;;;5.40;2.40;;;;;;;25.94;44.90;99147.48;133255;1307;22407;-76
2023/09/21 14:03:16;;;;;;;6.30;2.70;;;;;;;25.97;45.18;99146.38;133261;1305;22415;-76
2023/09/21 14:06:33;;;;;;;;;;;;;;;;;;;;;
2023/09/21 14:09:34;;;;;;;9.20;2.40;;;;;;;25.91;44.81;99144.27;133333;1310;22455;-76
2023/09/21 14:13:16;;;;;;;9.50;2.40;;;;;;;25.77;44.63;99141.86;133300;1304;22243;-77
2023/09/21 14:16:36;;;;;;;6.50;2.30;;;;;;;25.62;44.90;99139.54;133316;1310;22438;-80
2023/09/21 14:20:01;;;;;;;3.90;2.10;;;;;;;25.51;45.34;99129.46;133283;1301;22422;-76
2023/09/21 14:23:19;;;;;;;6.10;2.20;;;;;;;25.40;45.56;99130.13;133097;1307;22324;-76
2023/09/21 14:26:28;;;;;;;10.10;2.90;;;;;;;25.31;45.76;99128.86;133318;1310;22485;-75
2023/09/21 14:29:35;;;;;;;6.90;2.40;;;;;;;25.24;45.68;99122.59;133125;1298;22423;-77
2023/09/21 14:32:39;;;;;;;8.50;2.60;;;;;;;25.17;45.99;99121.73;133315;1304;22372;-77
2023/09/21 14:36:28;;;;;;;;;;;;;;;;;;;;;
2023/09/21 14:39:48;;;;;;;4.90;2.80;;;;;;;25.07;46.51;99122.46;132982;1310;22389;-77
2023/09/21 14:43:03;;;;;;;;;;;;;;;;;;;;;
2023/09/21 14:46:38;;;;;;;6.00;3.70;;;;;;;24.97;46.92;99118.80;132958;1310;22297;-75
2023/09/21 14:49:59;;;;;;;8.50;3.50;;;;;;;24.93;47.00;99113.76;133301;1305;22488;-78
2023/09/21 14:53:40;;;;;;;;;;;;;;;;;;;;;
2023/09/21 14:57:09;;;;;;;4.50;2.80;;;;;;;24.77;47.20;99110.63;133254;1307;22466;-76
2023/09/21 15:00:51;;;;;;;6.50;2.70;;;;;;;24.72;47.25;99111.11;133205;1304;22443;-80
2023/09/21 15:07:28;;;;;;;7.80;2.50;;;;;;;24.60;47.43;99102.64;133223;1305;22442;-76
2023/09/21 15:10:58;;;;;;;7.30;2.90;;;;;;;24.55;47.47;99098.45;133217;1304;22461;-77
2023/09/21 15:18:42;;;;;;;;;;;;;;;;;;;;;
2023/09/21 15:22:27;;;;;;;;;;;;;;;;;;;;;
2023/09/21 15:25:51;;;;;;;7.30;2.70;;;;;;;24.32;48.09;99086.06;133272;1308;22247;-82
2023/09/21 15:29:22;;;;;;;;;;;;;;;;;;;;;
2023/09/21 15:32:23;;;;;;;9.00;2.70;;;;;;;24.29;48.27;99084.52;133241;1305;22435;-82
2023/09/21 15:35:30;;;;;;;10.60;2.70;;;;;;;24.28;48.45;99084.37;133227;1311;22387;-81
2023/09/21 15:39:42;;;;;;;7.30;3.10;;;;;;;24.26;48.57;99080.36;133329;1310;23950;-81
2023/09/21 15:42:44;;;;;;;10.40;2.80;;;;;;;24.24;48.67;99071.54;133233;1305;22973;-81
2023/09/21 15:45:53;;;;;;;6.50;3.00;;;;;;;24.23;48.58;99071.66;133261;1307;22274;-81
2023/09/21 15:49:19;;;;;;;5.80;2.90;;;;;;;24.23;48.61;99073.60;133285;1307;23522;-83
2023/09/21 15:52:24;;;;;;;12.40;3.10;;;;;;;24.22;48.73;99072.38;133282;1305;22371;-81
2023/09/21 15:55:26;;;;;;;11.90;3.20;;;;;;;24.22;48.79;99067.71;133183;1311;22515;-81
2023/09/21 15:58:35;;;;;;;8.20;2.70;;;;;;;24.20;48.70;99065.82;133294;1304;22384;-85
2023/09/21 16:01:37;;;;;;;11.20;3.00;;;;;;;24.20;48.82;99065.77;133262;1305;22450;-81
2023/09/21 16:05:05;;;;;;;2.80;2.60;;;;;;;24.16;48.95;99059.40;133273;1311;23592;-81
2023/09/21 16:08:06;;;;;;;3.50;2.20;;;;;;;24.11;49.05;99053.80;133267;1302;22328;-82
2023/09/21 16:11:15;;;;;;;7.30;2.80;;;;;;;24.08;49.16;99051.98;133108;1310;22457;-82
2023/09/21 16:14:42;;;;;;;12.30;3.10;;;;;;;24.03;49.31;99053.74;133105;1311;23226;-83
2023/09/21 16:22:21;;;;;;;;;;;;;;;;;;;;;
2023/09/21 16:25:53;;;;;;;8.20;3.40;;;;;;;23.86;49.74;99053.04;133236;1311;22456;-81
2023/09/21 16:28:54;;;;;;;5.20;2.60;;;;;;;23.81;49.88;99054.70;133203;1305;22290;-81
2023/09/21 16:32:03;;;;;;;8.30;3.60;;;;;;;23.75;50.11;99051.48;133270;1305;22454;-81
2023/09/21 16:35:18;;;;;;;8.20;3.60;;;;;;;23.68;50.20;99048.84;133282;1308;22602;-82
2023/09/21 16:38:23;;;;;;;6.60;3.20;;;;;;;23.62;50.35;99046.52;133119;1311;23236;-85
2023/09/21 16:41:51;;;;;;;;;;;;;;;;;;;;;
2023/09/21 16:45:17;;;;;;;10.20;3.10;;;;;;;23.51;50.73;99042.63;133236;1308;22989;-82
2023/09/21 16:49:02;;;;;;;7.60;3.30;;;;;;;23.46;50.98;99043.80;133469;1307;23006;-83
2023/09/21 16:52:03;;;;;;;6.10;3.10;;;;;;;23.40;51.12;99037.86;133449;1301;23405;-80
2023/09/21 16:55:13;;;;;;;8.00;3.10;;;;;;;23.34;51.29;99038.17;133435;1310;23801;-77
2023/09/21 16:58:23;;;;;;;5.60;3.00;;;;;;;23.27;51.42;99037.70;133436;1305;22462;-76
2023/09/21 17:01:49;;;;;;;8.10;3.70;;;;;;;23.17;51.69;99032.59;133416;1305;22544;-77
2023/09/21 17:04:59;;;;;;;6.40;3.00;;;;;;;23.07;51.87;99035.22;133347;1305;22549;-75
2023/09/21 17:08:43;;;;;;;8.40;3.20;;;;;;;22.98;52.01;99036.39;133441;1304;22179;-78
2023/09/21 17:12:15;;;;;;;8.30;2.80;;;;;;;22.88;52.31;99037.45;133453;1305;22290;-76
2023/09/21 17:19:03;;;;;;;7.50;3.60;;;;;;;22.67;52.66;99031.91;133378;1305;22450;-76
2023/09/21 17:22:24;;;;;;;7.90;3.90;;;;;;;22.60;53.04;99031.05;133417;1304;22287;-76
2023/09/21 17:25:41;;;;;;;8.50;3.20;;;;;;;22.56;53.19;99028.73;133415;1308;22382;-77
2023/09/21 17:28:45;;;;;;;6.20;3.20;;;;;;;22.53;53.17;99028.70;133402;1309;23246;-86
2023/09/21 17:31:49;;;;;;;7.70;3.70;;;;;;;22.51;53.39;99028.36;133225;1308;22298;-81
2023/09/21 17:35:33;;;;;;;8.90;2.90;;;;;;;22.48;53.54;99030.38;133228;1308;22449;-81
2023/09/21 17:38:48;;;;;;;;;;;;;;;;;;;;;
2023/09/21 17:41:52;;;;;;;6.00;3.70;;;;;;;22.38;53.69;99028.27;133464;1307;22381;-79
2023/09/21 17:45:04;;;;;;;6.10;3.40;;;;;;;22.35;53.83;99026.70;133380;1309;22429;-83
2023/09/21 17:48:09;;;;;;;7.80;4.40;;;;;;;22.30;53.95;99025.29;133352;1305;22351;-80
2023/09/21 17:51:26;;;;;;;7.30;3.60;;;;;;;22.27;54.11;99025.41;133362;1310;22215;-81
2023/09/21 17:54:28;;;;;;;4.30;3.10;;;;;;;22.27;53.97;99029.03;133202;1307;23037;-80
2023/09/21 17:58:53;;;;;;;8.20;3.40;;;;;;;22.26;54.11;99028.98;133215;1305;22438;-82
2023/09/21 18:02:27;;;;;;;13.10;4.20;;;;;;;22.26;54.10;99027.24;133394;1304;23118;-79
2023/09/21 18:05:52;;;;;;;6.60;3.20;;;;;;;22.28;54.04;99027.98;133290;1305;22412;-78
2023/09/21 18:09:28;;;;;;;9.10;3.80;;;;;;;22.28;54.25;99024.48;133416;1308;22401;-80
2023/09/21 18:12:32;;;;;;;9.30;3.30;;;;;;;22.29;54.27;99020.70;133407;1309;22749;-81
2023/09/21 18:16:47;;;;;;;;;;;;;;;;;;;;;
2023/09/21 18:20:32;;;;;;;11.30;4.00;;;;;;;22.28;54.34;99015.35;133151;1310;22586;-81
2023/09/21 18:23:45;;;;;;;7.10;3.50;;;;;;;22.25;54.40;99013.58;133410;1303;22429;-80
2023/09/21 18:26:48;;;;;;;6.40;3.50;;;;;;;22.20;54.33;99010.31;133409;1304;23256;-81
2023/09/21 18:30:32;;;;;;;;;;;;;;;;;;;;;
2023/09/21 18:35:09;;;;;;;7.80;3.60;;;;;;;22.04;54.76;99011.05;133172;1305;22424;-82
2023/09/21 18:38:38;;;;;;;10.40;4.00;;;;;;;21.98;54.86;99014.60;133268;1304;22326;-81
2023/09/21 18:42:08;;;;;;;;;;;;;;;;;;;;;
2023/09/21 18:46:44;;;;;;;6.80;3.60;;;;;;;21.95;55.18;99011.46;133260;1304;22386;-82
2023/09/21 18:50:43;;;;;;;;;;;;;;;;;;;;;
2023/09/21 18:54:38;;;;;;;;;;;;;;;;;;;;;
2023/09/21 18:58:37;;;;;;;8.20;4.00;;;;;;;21.76;55.39;99004.40;133284;1307;22536;-81
2023/09/21 19:01:52;;;;;;;;;;;;;;;;;;;;;
2023/09/21 19:05:16;;;;;;;11.10;3.00;;;;;;;21.55;55.79;99002.91;133236;1304;22386;-81
2023/09/21 19:09:46;;;;;;;11.30;3.90;;;;;;;21.49;55.88;99001.86;133074;1307;22235;-83
2023/09/21 19:12:58;;;;;;;;;;;;;;;;;;;;;
2023/09/21 19:19:46;;;;;;;10.00;4.00;;;;;;;21.31;56.39;98997.29;133248;1304;22510;-80
2023/09/21 19:23:13;;;;;;;8.00;3.40;;;;;;;21.25;56.67;98996.35;133108;1304;22442;-81
2023/09/21 19:26:17;;;;;;;5.90;4.00;;;;;;;21.19;56.75;98994.28;133095;1307;22483;-81
2023/09/21 19:29:35;;;;;;;7.50;3.40;;;;;;;21.16;56.96;98996.15;133261;1304;23151;-81
2023/09/21 19:32:53;;;;;;;7.90;3.90;;;;;;;21.12;57.04;98995.22;133250;1311;23437;-81